Impacts TAF Board INFO
FOR SITUATIONAL AWARENESS. NOT TO BE USED FOR FLIGHT PLANNING PURPOSES.
IDs:

KBOS - Boston/Logan Intl, MA, US

Issued at 1120 UTC 21 May 2018
Updated at 1311 UTC 21 May 2018
Potential Impact None Slight Moderate High
Time<<22/02Z 22/03Z 22/04Z 22/05Z 22/06Z 22/07Z 22/08Z 22/09Z 22/10Z 22/11Z 22/12Z 22/13Z 22/14Z>>
Type PRVL PRVL PRVL PRVL PRVL PRVL PRVL PRVL PRVL PRVL PRVL PRVL PRVL
VIS >6 >6 >6 >6 >6 >6 >6 >6 >6 >6 >6 >6 >6
CIG -- -- -- -- -- -- -- -- -- -- 130 130 130
Cover FEW FEW FEW FEW FEW FEW FEW FEW FEW FEW BKN BKN BKN
FltCat VFR VFR VFR VFR VFR VFR VFR VFR VFR VFR VFR VFR VFR
WX -- -- -- -- -- -- -- -- -- -- -- -- --
WDir 210 210 210 210 240 240 240 240 240 240 210 210 210
WSpd 6 6 6 6 4 4 4 4 4 4 3 3 3
WGst -- -- -- -- -- -- -- -- -- -- -- -- --

Raw TAF
KBOS 211120Z 2112/2218 31007KT P6SM SKC
  FM211400 05003KT P6SM SKC
  FM211600 13003KT P6SM SKC
  FM212200 17006KT P6SM FEW250
  FM212300 21006KT P6SM FEW250
  FM220600 24004KT P6SM FEW200
  FM221200 21003KT P6SM BKN130
  FM221600 18005KT P6SM BKN100


METAR Board
Radar Display
Forecast Discussion

FOR SITUATIONAL AWARENESS. NOT TO BE USED FOR FLIGHT PLANNING PURPOSES.